Time;durP1;ratioP1;P1;durP2;ratioP2;P2;SDS_P1;SDS_P2;PMS_P1;PMS_P2;Temp;Humidity;BMP_temperature;BMP_pressure;BME280_temperature;BME280_humidity;BME280_pressure;Samples;Min_cycle;Max_cycle;Signal;HPM_P1;HPM_P2
2021/10/24 00:14:27;;;;;;;5.53;4.10;;;4.70;99.90;;;;;;5955420;23;22357;-96
2021/10/24 00:51:05;;;;;;;6.07;5.47;;;4.00;99.90;;;;;;5014915;23;20656;-96
2021/10/24 01:30:14;;;;;;;4.93;3.70;;;4.10;99.90;;;;;;4995966;28;20669;-96
2021/10/24 01:32:41;;;;;;;5.70;4.13;;;4.00;99.90;;;;;;4977701;29;20638;-96
2021/10/24 01:35:11;;;;;;;6.73;3.70;;;4.00;99.90;;;;;;4989011;28;20660;-96
2021/10/24 01:37:44;;;;;;;5.13;4.30;;;4.00;99.90;;;;;;4999172;28;20652;-96
2021/10/24 01:40:54;;;;;;;13.93;5.50;;;4.00;99.90;;;;;;4999423;28;20629;-96
2021/10/24 01:43:23;;;;;;;8.93;4.00;;;3.90;99.90;;;;;;4999604;28;20623;-96
2021/10/24 01:46:22;;;;;;;7.10;5.07;;;3.80;99.90;;;;;;4999185;28;20682;-95
2021/10/24 01:48:49;;;;;;;5.80;4.53;;;4.00;99.90;;;;;;4995781;28;20718;-96
2021/10/24 01:59:03;;;;;;;5.60;3.43;;;3.90;99.90;;;;;;5066908;23;20662;-94
2021/10/24 02:01:32;;;;;;;4.20;3.70;;;3.90;99.90;;;;;;4994736;28;20632;-95
2021/10/24 02:35:15;;;;;;;5.23;3.80;;;3.40;99.90;;;;;;4997030;28;20654;-95
2021/10/24 02:37:44;;;;;;;4.00;3.60;;;3.40;99.90;;;;;;5001548;28;20597;-95
2021/10/24 02:40:21;;;;;;;8.67;4.50;;;3.40;99.90;;;;;;5015664;28;20636;-95
2021/10/24 02:42:49;;;;;;;5.10;3.80;;;3.40;99.90;;;;;;5011580;28;20674;-96
2021/10/24 02:45:41;;;;;;;4.53;4.13;;;3.40;99.90;;;;;;4980665;28;20681;-96
2021/10/24 02:48:09;;;;;;;6.33;3.87;;;3.40;99.90;;;;;;4983052;28;20648;-95
2021/10/24 02:50:53;;;;;;;5.47;3.90;;;3.40;99.90;;;;;;4990018;28;20708;-96
2021/10/24 02:53:23;;;;;;;6.23;4.50;;;3.40;99.90;;;;;;4985906;28;20661;-95
2021/10/24 02:56:00;;;;;;;4.63;4.20;;;3.30;99.90;;;;;;4986281;28;20631;-95
2021/10/24 02:58:29;;;;;;;6.43;4.00;;;3.30;99.90;;;;;;4981108;28;20639;-94
2021/10/24 03:01:05;;;;;;;5.90;4.33;;;3.30;99.90;;;;;;4987967;28;20721;-95
2021/10/24 03:03:34;;;;;;;5.23;4.17;;;3.30;99.90;;;;;;4983947;28;20644;-95
2021/10/24 03:06:06;;;;;;;5.90;3.90;;;3.20;99.90;;;;;;4988570;28;20670;-94
2021/10/24 03:08:33;;;;;;;6.73;4.87;;;3.30;99.90;;;;;;4983365;28;20648;-96
2021/10/24 03:11:01;;;;;;;7.77;4.10;;;3.30;99.90;;;;;;4974655;28;20686;-95
2021/10/24 03:13:28;;;;;;;7.63;3.97;;;3.20;99.90;;;;;;4997522;28;20654;-95
2021/10/24 03:16:09;;;;;;;8.40;4.73;;;3.30;99.90;;;;;;4985511;28;20657;-96
2021/10/24 03:18:39;;;;;;;7.33;4.50;;;3.20;99.90;;;;;;4991011;28;20620;-94
2021/10/24 03:21:29;;;;;;;5.23;4.27;;;3.10;99.90;;;;;;4983657;28;20623;-95
2021/10/24 05:02:20;;;;;;;7.90;5.40;;;2.50;99.90;;;;;;5581990;23;20699;-94
2021/10/24 05:13:19;;;;;;;6.73;4.90;;;2.50;99.90;;;;;;6040463;23;22120;-95
2021/10/24 05:16:44;;;;;;;5.57;5.10;;;2.50;99.90;;;;;;4992524;28;20848;-95
2021/10/24 05:19:29;;;;;;;6.83;5.40;;;2.50;99.90;;;;;;4971020;28;20643;-96
2021/10/24 05:22:43;;;;;;;5.20;4.70;;;2.40;99.90;;;;;;4982332;28;20642;-95
2021/10/24 05:28:43;;;;;;;5.50;4.23;;;2.40;99.90;;;;;;4972890;28;20567;-96
2021/10/24 05:31:12;;;;;;;4.50;4.10;;;2.50;99.90;;;;;;4970797;28;20747;-96
2021/10/24 05:34:08;;;;;;;5.10;4.60;;;2.50;99.90;;;;;;4980045;28;20638;-96
2021/10/24 05:40:05;;;;;;;5.70;4.13;;;2.30;99.90;;;;;;4993377;28;20608;-96
2021/10/24 05:42:45;;;;;;;5.17;4.67;;;2.40;99.90;;;;;;5000325;28;20635;-96
2021/10/24 05:45:16;;;;;;;6.50;5.03;;;2.20;99.90;;;;;;4967133;28;20647;-95
2021/10/24 05:47:49;;;;;;;8.77;5.77;;;2.30;99.90;;;;;;4962716;28;20679;-95
2021/10/24 05:50:32;;;;;;;4.67;4.20;;;2.30;99.90;;;;;;4962377;28;20666;-96
2021/10/24 05:53:24;;;;;;;4.70;3.80;;;2.40;99.90;;;;;;4968055;28;21010;-96
2021/10/24 05:56:00;;;;;;;4.37;3.97;;;2.30;99.90;;;;;;4962807;28;20675;-95
2021/10/24 05:58:36;;;;;;;6.80;4.10;;;2.20;99.90;;;;;;4983841;28;20684;-96
2021/10/24 06:07:49;;;;;;;6.03;4.63;;;2.30;99.90;;;;;;4972414;28;20646;-95
2021/10/24 06:10:28;;;;;;;7.37;4.40;;;2.30;99.90;;;;;;4988020;28;20693;-94
2021/10/24 06:29:25;;;;;;;5.57;4.37;;;2.10;99.90;;;;;;5095794;23;20673;-94
2021/10/24 06:32:20;;;;;;;7.00;4.90;;;2.30;99.90;;;;;;5005031;28;20687;-95
2021/10/24 06:44:29;;;;;;;8.47;5.37;;;2.50;99.90;;;;;;4989968;28;20587;-96
2021/10/24 06:46:57;;;;;;;9.37;7.80;;;2.70;99.90;;;;;;4994234;28;20659;-96
2021/10/24 06:49:31;;;;;;;7.90;6.63;;;2.60;99.90;;;;;;4998300;28;20709;-96
2021/10/24 06:55:22;;;;;;;8.00;7.03;;;2.70;99.90;;;;;;4998974;28;20546;-96
2021/10/24 06:58:07;;;;;;;9.07;6.40;;;2.70;99.90;;;;;;4986001;28;20640;-95
2021/10/24 07:00:35;;;;;;;7.63;6.87;;;2.80;99.90;;;;;;4983676;28;20623;-95
2021/10/24 07:03:05;;;;;;;7.83;7.20;;;2.90;99.90;;;;;;4964714;28;21013;-95
2021/10/24 07:05:34;;;;;;;11.80;8.23;;;3.00;99.90;;;;;;5014011;28;20623;-95
2021/10/24 07:14:03;;;;;;;9.50;8.60;;;3.30;99.90;;;;;;5042001;23;20716;-94
2021/10/24 07:16:43;;;;;;;12.33;9.27;;;3.50;99.90;;;;;;4971715;28;20655;-96
2021/10/24 07:19:18;;;;;;;9.70;8.77;;;3.60;99.90;;;;;;4981897;28;20715;-94
2021/10/24 07:21:46;;;;;;;9.23;8.33;;;3.80;99.90;;;;;;4990402;28;20663;-95
2021/10/24 07:24:15;;;;;;;10.67;9.80;;;4.10;99.90;;;;;;4993842;28;20632;-96
2021/10/24 07:26:43;;;;;;;11.17;9.97;;;4.30;99.90;;;;;;4998991;28;20664;-95
2021/10/24 07:31:50;;;;;;;11.10;10.00;;;4.70;99.90;;;;;;4978504;28;21290;-95
2021/10/24 07:34:19;;;;;;;14.37;13.27;;;4.80;99.90;;;;;;4980408;28;20997;-95
2021/10/24 07:36:46;;;;;;;10.93;10.03;;;4.90;99.90;;;;;;4975147;28;20648;-95
2021/10/24 07:39:15;;;;;;;10.53;9.63;;;5.10;99.90;;;;;;4986367;28;20691;-95
2021/10/24 07:41:42;;;;;;;9.97;8.97;;;5.20;99.90;;;;;;4987838;28;20664;-95
2021/10/24 07:44:11;;;;;;;12.83;7.77;;;5.30;99.90;;;;;;4976072;28;20746;-94
2021/10/24 07:46:42;;;;;;;10.20;9.40;;;5.40;99.90;;;;;;4976001;28;20634;-96
2021/10/24 07:49:19;;;;;;;10.70;9.60;;;5.70;99.90;;;;;;4984212;28;20703;-96
2021/10/24 07:51:48;;;;;;;10.77;9.73;;;6.00;99.90;;;;;;4981636;28;20685;-95
2021/10/24 07:54:22;;;;;;;12.97;9.43;;;6.10;99.90;;;;;;4995386;28;20633;-95
2021/10/24 07:56:50;;;;;;;10.33;9.43;;;6.10;99.90;;;;;;4978599;28;20689;-95
2021/10/24 07:59:23;;;;;;;9.73;8.63;;;6.20;99.90;;;;;;4971576;28;20647;-95
2021/10/24 08:01:54;;;;;;;8.93;8.13;;;6.30;99.90;;;;;;4986825;28;21031;-96
2021/10/24 08:04:33;;;;;;;9.07;8.37;;;6.40;99.90;;;;;;4988174;28;20683;-96
2021/10/24 08:07:03;;;;;;;9.67;8.77;;;6.40;99.90;;;;;;4998000;28;20628;-96
2021/10/24 08:09:32;;;;;;;7.97;7.27;;;6.60;99.90;;;;;;4984749;28;21217;-95
2021/10/24 08:12:03;;;;;;;9.90;9.00;;;6.90;99.90;;;;;;4988001;28;21271;-96
2021/10/24 08:14:31;;;;;;;8.80;8.00;;;7.10;99.90;;;;;;4988487;28;20701;-96
2021/10/24 08:17:03;;;;;;;8.13;7.43;;;7.50;99.90;;;;;;4988685;28;20648;-95
2021/10/24 08:19:39;;;;;;;8.37;7.67;;;7.60;99.90;;;;;;4986220;28;20641;-95
2021/10/24 08:35:45;;;;;;;11.77;6.80;;;7.30;99.90;;;;;;4986844;28;20664;-94
2021/10/24 08:38:22;;;;;;;7.83;7.23;;;7.60;99.90;;;;;;4991190;28;20671;-95
2021/10/24 08:43:33;;;;;;;7.67;6.97;;;8.00;99.90;;;;;;4989006;28;20633;-96
2021/10/24 08:46:01;;;;;;;9.13;8.33;;;8.00;99.90;;;;;;4987907;28;20626;-95
2021/10/24 08:48:34;;;;;;;10.63;6.77;;;8.10;99.90;;;;;;4997179;28;20640;-95
2021/10/24 08:54:16;;;;;;;7.10;6.47;;;8.30;99.90;;;;;;4981184;28;20658;-95
2021/10/24 08:56:45;;;;;;;7.37;6.70;;;8.40;99.90;;;;;;4974685;28;20649;-92
2021/10/24 08:59:13;;;;;;;7.17;6.50;;;8.80;99.90;;;;;;4982439;28;20633;-93
2021/10/24 09:01:51;;;;;;;7.87;7.17;;;9.10;99.90;;;;;;4979255;28;20716;-92
2021/10/24 09:04:19;;;;;;;7.00;6.30;;;9.20;99.90;;;;;;4975864;28;20664;-93
2021/10/24 09:06:55;;;;;;;7.40;6.80;;;9.10;99.90;;;;;;4985051;28;20734;-92
2021/10/24 09:09:26;;;;;;;7.47;6.57;;;9.60;99.90;;;;;;4976361;28;20641;-91
2021/10/24 09:11:59;;;;;;;7.47;6.77;;;9.70;99.90;;;;;;4981672;28;20757;-94
2021/10/24 09:14:40;;;;;;;9.50;7.73;;;9.80;99.90;;;;;;4983263;28;20669;-94
2021/10/24 09:17:09;;;;;;;9.37;6.13;;;9.80;99.90;;;;;;4983759;28;20769;-93
2021/10/24 09:19:38;;;;;;;7.93;6.97;;;10.00;99.90;;;;;;4980814;28;20637;-94
2021/10/24 09:22:22;;;;;;;7.87;7.17;;;10.00;99.90;;;;;;4978045;28;20737;-93
2021/10/24 09:25:12;;;;;;;6.80;6.20;;;10.30;99.90;;;;;;4981843;28;20688;-93
2021/10/24 09:27:54;;;;;;;9.47;6.53;;;10.40;99.90;;;;;;4978344;28;21135;-94
2021/10/24 09:30:23;;;;;;;6.70;5.47;;;10.60;99.90;;;;;;4977908;28;20646;-94
2021/10/24 09:32:57;;;;;;;6.90;6.27;;;10.90;99.90;;;;;;4996779;28;20681;-94
2021/10/24 09:35:39;;;;;;;7.10;5.93;;;11.00;99.90;;;;;;4985543;28;20672;-94
2021/10/24 09:38:11;;;;;;;6.83;6.23;;;11.40;99.90;;;;;;4991457;28;20669;-94
2021/10/24 09:40:46;;;;;;;6.17;5.57;;;11.50;99.90;;;;;;4986477;28;20637;-94
2021/10/24 09:43:18;;;;;;;7.50;5.47;;;11.70;99.90;;;;;;4985408;28;20628;-93
2021/10/24 09:45:49;;;;;;;5.73;5.23;;;11.60;99.90;;;;;;4984516;28;21062;-94
2021/10/24 09:48:17;;;;;;;4.73;4.43;;;11.80;99.90;;;;;;4985708;28;20705;-95
2021/10/24 09:50:50;;;;;;;6.33;4.93;;;12.00;99.90;;;;;;4990401;28;20731;-95
2021/10/24 09:53:20;;;;;;;5.47;4.50;;;12.10;99.90;;;;;;4979642;28;20716;-95
2021/10/24 09:56:07;;;;;;;7.33;4.53;;;12.30;99.90;;;;;;4986056;28;20640;-92
2021/10/24 09:58:37;;;;;;;4.60;4.20;;;12.70;99.90;;;;;;4980198;28;20637;-93
2021/10/24 10:01:19;;;;;;;5.07;4.37;;;12.80;99.90;;;;;;4978561;28;21003;-94
2021/10/24 10:03:48;;;;;;;5.73;4.87;;;12.80;99.90;;;;;;4976331;28;20708;-94
2021/10/24 10:06:16;;;;;;;6.13;5.53;;;13.10;99.90;;;;;;4981939;28;21173;-93
2021/10/24 10:08:46;;;;;;;5.70;5.17;;;13.30;99.90;;;;;;4983381;28;20657;-94
2021/10/24 10:11:26;;;;;;;4.67;4.27;;;13.40;99.90;;;;;;4977815;28;21386;-93
2021/10/24 10:13:59;;;;;;;5.93;4.87;;;13.40;99.90;;;;;;4974789;28;20633;-93
2021/10/24 10:16:36;;;;;;;6.27;5.07;;;13.80;98.60;;;;;;4982007;28;20714;-95
2021/10/24 10:19:08;;;;;;;6.73;4.40;;;13.60;98.30;;;;;;4989485;28;20747;-94
2021/10/24 10:21:40;;;;;;;4.23;3.30;;;13.90;97.20;;;;;;4983199;28;20638;-94
2021/10/24 10:24:09;;;;;;;5.80;5.20;;;14.20;96.90;;;;;;4981371;28;20673;-94
2021/10/24 10:26:45;;;;;;;5.47;3.70;;;14.30;95.60;;;;;;4982546;28;20676;-94
2021/10/24 10:29:56;;;;;;;4.13;3.80;;;14.50;97.00;;;;;;4996399;28;20651;-94
2021/10/24 10:32:36;;;;;;;4.93;3.93;;;14.70;94.80;;;;;;4985285;28;20659;-93
2021/10/24 10:35:05;;;;;;;5.77;4.10;;;14.90;94.90;;;;;;4982328;28;20648;-94
2021/10/24 10:37:51;;;;;;;6.40;4.60;;;14.90;96.30;;;;;;4998786;28;20687;-94
2021/10/24 10:40:28;;;;;;;5.47;4.53;;;15.10;94.40;;;;;;4987796;28;20712;-93
2021/10/24 10:43:04;;;;;;;5.47;3.97;;;15.30;94.90;;;;;;4983675;28;20655;-94
2021/10/24 10:45:58;;;;;;;4.50;4.10;;;15.50;93.00;;;;;;4982948;28;20736;-94
2021/10/24 10:48:38;;;;;;;7.60;4.83;;;15.30;94.00;;;;;;4982636;28;21169;-94
2021/10/24 10:51:15;;;;;;;5.37;4.20;;;15.90;91.90;;;;;;4979662;28;20676;-95
2021/10/24 10:54:04;;;;;;;6.73;4.60;;;15.90;92.10;;;;;;4977723;28;20664;-95
2021/10/24 10:56:52;;;;;;;5.13;4.53;;;16.10;92.10;;;;;;4983475;28;20665;-93
2021/10/24 10:59:41;;;;;;;4.17;3.80;;;16.10;91.10;;;;;;4979803;28;20680;-95
2021/10/24 11:02:24;;;;;;;9.27;4.03;;;16.40;91.10;;;;;;4983167;28;20670;-94
2021/10/24 11:04:53;;;;;;;5.30;4.80;;;16.70;90.40;;;;;;4980249;28;20652;-94
2021/10/24 11:07:47;;;;;;;5.27;4.50;;;16.40;90.90;;;;;;4998551;28;20653;-94
2021/10/24 11:10:45;;;;;;;5.00;4.17;;;16.70;89.90;;;;;;4991041;28;20701;-92
2021/10/24 11:13:42;;;;;;;5.07;3.30;;;16.90;89.40;;;;;;4978186;28;20772;-93
2021/10/24 11:16:38;;;;;;;5.10;4.33;;;17.30;86.30;;;;;;4984072;28;20660;-95
2021/10/24 11:19:41;;;;;;;4.40;4.00;;;17.20;86.60;;;;;;4977008;28;20644;-95
2021/10/24 11:22:11;;;;;;;5.60;3.90;;;17.30;87.50;;;;;;4981547;28;20635;-95
2021/10/24 11:24:42;;;;;;;4.47;4.07;;;17.80;87.00;;;;;;4978342;28;21185;-96
2021/10/24 11:27:15;;;;;;;4.20;3.80;;;18.10;82.20;;;;;;4979860;28;20688;-94
2021/10/24 11:30:00;;;;;;;4.30;3.50;;;18.00;82.30;;;;;;4975143;28;20628;-94
2021/10/24 11:32:33;;;;;;;8.73;4.17;;;18.60;81.00;;;;;;4972642;28;20685;-94
2021/10/24 11:35:04;;;;;;;3.50;3.20;;;18.20;81.40;;;;;;4981534;28;20649;-96
2021/10/24 11:37:44;;;;;;;7.10;3.80;;;18.20;81.80;;;;;;4985414;28;20703;-95
2021/10/24 11:40:17;;;;;;;5.53;5.03;;;18.20;82.10;;;;;;4990475;28;20624;-95
2021/10/24 11:43:00;;;;;;;4.67;4.27;;;18.40;79.90;;;;;;4984212;28;21179;-95
2021/10/24 11:45:29;;;;;;;6.60;5.30;;;18.50;81.60;;;;;;4973810;28;20993;-96
2021/10/24 11:48:08;;;;;;;5.20;3.70;;;19.40;78.70;;;;;;4979132;28;20747;-96
2021/10/24 11:50:43;;;;;;;4.47;4.07;;;19.20;75.30;;;;;;4979730;28;20664;-96
2021/10/24 11:53:17;;;;;;;4.57;4.07;;;18.80;76.30;;;;;;4977819;28;21128;-96
2021/10/24 11:55:48;;;;;;;4.63;4.23;;;19.90;77.00;;;;;;4986458;28;20636;-95
2021/10/24 11:58:34;;;;;;;6.00;4.77;;;19.50;75.90;;;;;;4982005;28;20745;-95
2021/10/24 12:01:08;;;;;;;4.67;3.83;;;19.30;76.10;;;;;;4976813;28;20645;-96
2021/10/24 12:03:43;;;;;;;3.97;3.67;;;19.90;73.60;;;;;;4981490;28;20698;-95
2021/10/24 12:08:52;;;;;;;3.53;3.20;;;19.60;76.00;;;;;;4979353;28;20622;-95
2021/10/24 12:11:28;;;;;;;4.30;3.87;;;20.20;72.90;;;;;;4976563;28;20751;-96
2021/10/24 12:14:02;;;;;;;7.60;4.20;;;20.50;72.30;;;;;;4977790;28;21106;-96
2021/10/24 12:16:34;;;;;;;5.10;4.10;;;20.50;72.10;;;;;;4979424;28;20751;-95
2021/10/24 12:19:26;;;;;;;4.30;4.00;;;20.70;70.80;;;;;;4974654;28;20760;-96
2021/10/24 12:22:02;;;;;;;3.87;3.57;;;21.00;68.80;;;;;;4981460;28;20641;-94
2021/10/24 12:24:54;;;;;;;4.10;3.80;;;20.80;69.70;;;;;;4982157;28;20669;-95
2021/10/24 12:27:27;;;;;;;7.23;4.60;;;20.40;69.90;;;;;;4991281;28;20733;-96
2021/10/24 12:30:07;;;;;;;4.37;3.80;;;21.00;68.90;;;;;;4978523;28;20633;-95
2021/10/24 12:32:36;;;;;;;5.23;4.00;;;21.30;68.20;;;;;;4985878;28;21192;-95
2021/10/24 12:35:12;;;;;;;4.70;4.30;;;21.80;66.90;;;;;;4993076;28;20703;-96
2021/10/24 12:37:59;;;;;;;4.00;3.63;;;21.80;66.40;;;;;;4983546;28;20657;-96
2021/10/24 12:40:32;;;;;;;4.50;4.10;;;22.50;66.40;;;;;;4987622;28;20621;-96
2021/10/24 12:43:14;;;;;;;4.43;3.93;;;22.60;65.80;;;;;;4984791;28;20616;-96
2021/10/24 12:45:59;;;;;;;5.77;5.27;;;22.60;67.30;;;;;;4985993;28;21236;-96
2021/10/24 12:48:45;;;;;;;5.37;4.80;;;22.50;68.80;;;;;;4973708;28;21182;-96
2021/10/24 12:51:27;;;;;;;4.63;4.33;;;22.50;65.70;;;;;;4976084;28;20643;-96
2021/10/24 12:53:56;;;;;;;5.60;5.10;;;22.40;66.60;;;;;;4975204;28;20772;-94
2021/10/24 12:56:25;;;;;;;6.50;5.90;;;22.40;65.10;;;;;;4983419;28;20763;-94
2021/10/24 12:58:53;;;;;;;5.17;4.17;;;22.30;65.90;;;;;;4978261;28;21180;-94
2021/10/24 13:01:24;;;;;;;5.67;4.20;;;22.60;65.20;;;;;;4972521;28;20671;-95
2021/10/24 13:04:02;;;;;;;4.10;3.80;;;23.00;64.70;;;;;;4975156;28;20637;-96
2021/10/24 13:06:36;;;;;;;4.67;4.27;;;23.40;63.00;;;;;;4978947;28;20772;-95
2021/10/24 13:09:07;;;;;;;5.00;3.60;;;23.30;62.10;;;;;;4985547;28;20635;-96
2021/10/24 13:11:38;;;;;;;3.77;3.40;;;23.20;60.90;;;;;;4978235;28;20981;-95
2021/10/24 13:14:15;;;;;;;4.17;3.87;;;23.40;61.40;;;;;;4978418;28;20670;-96
2021/10/24 13:16:49;;;;;;;4.27;3.80;;;23.60;61.90;;;;;;4979689;28;21268;-95
2021/10/24 13:19:17;;;;;;;3.73;3.43;;;23.60;61.00;;;;;;4982847;28;20643;-96
2021/10/24 13:24:38;;;;;;;4.17;3.87;;;23.80;60.80;;;;;;4981626;28;20707;-96
2021/10/24 13:27:07;;;;;;;4.80;4.40;;;23.90;59.30;;;;;;4986327;28;20662;-96
2021/10/24 13:29:34;;;;;;;3.80;3.47;;;24.10;59.40;;;;;;4978506;28;20707;-95
2021/10/24 13:32:03;;;;;;;4.53;4.13;;;24.10;58.70;;;;;;4979048;28;20645;-96
2021/10/24 13:34:35;;;;;;;4.80;4.40;;;24.20;58.90;;;;;;4981535;28;20650;-96
2021/10/24 13:37:05;;;;;;;5.10;4.60;;;24.00;59.10;;;;;;4982880;28;20703;-96
2021/10/24 13:39:36;;;;;;;5.10;4.60;;;24.00;59.30;;;;;;4977001;28;21216;-96
2021/10/24 13:42:07;;;;;;;5.97;4.30;;;24.20;58.40;;;;;;4991206;28;20637;-96
2021/10/24 13:44:43;;;;;;;4.23;3.87;;;23.80;58.00;;;;;;4990809;28;20664;-96
2021/10/24 13:47:49;;;;;;;3.90;3.53;;;24.00;57.70;;;;;;4981195;28;20672;-96
2021/10/24 13:50:17;;;;;;;5.10;3.57;;;23.80;57.00;;;;;;5000303;28;20621;-95
2021/10/24 13:52:49;;;;;;;5.20;4.70;;;24.10;57.40;;;;;;4982806;28;20667;-96
2021/10/24 13:55:18;;;;;;;4.33;3.83;;;23.70;57.10;;;;;;4981612;28;20741;-96
2021/10/24 13:57:46;;;;;;;5.63;4.73;;;24.20;57.00;;;;;;4982664;28;20686;-95
2021/10/24 14:00:14;;;;;;;7.63;7.00;;;24.80;55.70;;;;;;4978688;28;20637;-96
2021/10/24 14:02:47;;;;;;;4.70;4.17;;;24.50;56.30;;;;;;4983392;28;20724;-95
2021/10/24 14:05:16;;;;;;;6.37;4.07;;;24.20;56.20;;;;;;4978358;28;20660;-96
2021/10/24 14:10:50;;;;;;;4.00;3.70;;;23.50;56.90;;;;;;4974627;28;20642;-96
2021/10/24 14:13:20;;;;;;;4.10;3.40;;;24.50;56.90;;;;;;4979866;28;20665;-95
2021/10/24 14:16:06;;;;;;;3.33;3.03;;;23.80;57.60;;;;;;4989687;28;21009;-95
2021/10/24 14:18:33;;;;;;;4.37;3.23;;;23.40;57.90;;;;;;4983959;28;20670;-96
2021/10/24 14:21:04;;;;;;;5.43;3.60;;;23.50;57.10;;;;;;4985501;28;20657;-95
2021/10/24 14:26:54;;;;;;;3.80;3.50;;;24.50;56.40;;;;;;4988323;28;20601;-93
2021/10/24 14:29:22;;;;;;;3.80;3.33;;;24.20;56.60;;;;;;4983166;28;20756;-94
2021/10/24 14:31:58;;;;;;;6.00;3.53;;;24.30;56.20;;;;;;4974475;28;20645;-94
2021/10/24 14:34:51;;;;;;;4.87;3.43;;;23.80;57.60;;;;;;4987848;28;20670;-95
2021/10/24 14:42:46;;;;;;;3.97;3.50;;;23.50;57.70;;;;;;4978551;28;20247;-96
2021/10/24 14:45:54;;;;;;;4.03;3.60;;;23.70;57.90;;;;;;4972462;28;20673;-95
2021/10/24 14:54:42;;;;;;;3.67;3.33;;;24.10;57.80;;;;;;4913136;28;21225;-95
2021/10/24 14:57:20;;;;;;;4.87;3.40;;;24.50;57.10;;;;;;4949753;28;20634;-94
2021/10/24 15:03:51;;;;;;;5.20;3.40;;;24.70;56.70;;;;;;4946679;28;20692;-96
2021/10/24 15:06:48;;;;;;;6.90;3.60;;;24.00;57.20;;;;;;4956986;28;20640;-96
2021/10/24 15:09:17;;;;;;;4.03;3.63;;;24.40;57.00;;;;;;4957717;28;20641;-96
2021/10/24 15:15:34;;;;;;;4.00;3.60;;;23.80;57.90;;;;;;4969622;28;21227;-96
2021/10/24 15:18:23;;;;;;;7.10;3.80;;;24.10;57.40;;;;;;4971744;28;20708;-96
2021/10/24 15:21:12;;;;;;;3.70;3.40;;;23.70;57.80;;;;;;4972488;28;20677;-96
2021/10/24 15:23:45;;;;;;;5.40;4.07;;;23.50;58.10;;;;;;4958656;28;20622;-96
2021/10/24 15:29:40;;;;;;;4.80;3.60;;;23.00;58.60;;;;;;4970670;28;20638;-96
2021/10/24 15:38:35;;;;;;;;;;;;;;;;;;;;;
2021/10/24 16:49:17;;;;;;;8.73;7.43;;;10.60;99.90;;;;;;4994812;28;20729;-96
2021/10/24 21:53:57;;;;;;;21.10;19.50;;;5.10;99.90;;;;;;4987977;28;20722;-95
2021/10/24 22:02:47;;;;;;;20.30;18.60;;;5.00;99.90;;;;;;5005411;28;20680;-94
2021/10/24 22:50:19;;;;;;;21.10;19.07;;;4.80;99.90;;;;;;4997398;23;20685;-95
2021/10/24 22:53:16;;;;;;;21.97;20.17;;;4.80;99.90;;;;;;4964804;29;20636;-96
2021/10/24 23:11:22;;;;;;;21.93;20.20;;;4.70;99.90;;;;;;4994421;28;20643;-95
2021/10/24 23:36:22;;;;;;;23.33;21.53;;;4.50;99.90;;;;;;5004742;28;20625;-95
2021/10/24 23:38:51;;;;;;;22.80;20.80;;;4.60;99.90;;;;;;4982463;28;20649;-96
2021/10/24 23:41:19;;;;;;;21.83;19.97;;;4.60;99.90;;;;;;4994386;28;20692;-96
2021/10/24 23:46:23;;;;;;;21.67;20.00;;;4.50;99.90;;;;;;5129686;23;20685;-94
2021/10/24 23:51:52;;;;;;;22.20;20.33;;;4.50;99.90;;;;;;5003110;28;20636;-94
2021/10/24 23:57:45;;;;;;;21.07;19.23;;;4.50;99.90;;;;;;4998204;28;20573;-94
